Time;durP1;ratioP1;P1;durP2;ratioP2;P2;SDS_P1;SDS_P2;PMS_P1;PMS_P2;Temp;Humidity;BMP_temperature;BMP_pressure;BME280_temperature;BME280_humidity;BME280_pressure;Samples;Min_cycle;Max_cycle;Signal;HPM_P1;HPM_P2
2022/06/21 00:00:00;;;;;;;0.3;0.3;;;;;;;15.6;100.0;101460;;;;
2022/06/21 00:01:00;;;;;;;0.3;0.3;;;;;;;15.6;100.0;101450;;;;
2022/06/21 00:02:00;;;;;;;0.5;0.5;;;;;;;15.6;100.0;101450;;;;
2022/06/21 00:03:02;;;;;;;0.5;0.5;;;;;;;15.6;100.0;101450;;;;
2022/06/21 00:04:01;;;;;;;0.5;0.5;;;;;;;15.6;100.0;101450;;;;
2022/06/21 00:05:01;;;;;;;0.5;0.5;;;;;;;15.3;100.0;101450;;;;
2022/06/21 00:06:00;;;;;;;0.5;0.5;;;;;;;15.3;100.0;101450;;;;
2022/06/21 00:07:02;;;;;;;0.5;0.5;;;;;;;15.4;100.0;101440;;;;
2022/06/21 00:08:02;;;;;;;0.5;0.5;;;;;;;15.4;100.0;101440;;;;
2022/06/21 00:09:00;;;;;;;0.5;0.5;;;;;;;15.5;100.0;101440;;;;
2022/06/21 00:10:00;;;;;;;0.5;0.5;;;;;;;15.5;100.0;101440;;;;
2022/06/21 00:11:01;;;;;;;0.5;0.5;;;;;;;15.6;100.0;101450;;;;
2022/06/21 00:12:00;;;;;;;0.5;0.5;;;;;;;15.6;100.0;101450;;;;
2022/06/21 00:13:01;;;;;;;0.5;0.5;;;;;;;15.5;100.0;101440;;;;
2022/06/21 00:14:00;;;;;;;0.5;0.5;;;;;;;15.5;100.0;101440;;;;
2022/06/21 00:15:00;;;;;;;0.5;0.5;;;;;;;15.4;100.0;101440;;;;
2022/06/21 00:16:02;;;;;;;0.5;0.5;;;;;;;15.4;100.0;101440;;;;
2022/06/21 00:17:00;;;;;;;0.5;0.5;;;;;;;15.4;100.0;101440;;;;
2022/06/21 00:18:00;;;;;;;0.5;0.5;;;;;;;15.4;100.0;101440;;;;
2022/06/21 00:19:01;;;;;;;0.5;0.5;;;;;;;15.3;100.0;101440;;;;
2022/06/21 00:20:00;;;;;;;0.5;0.5;;;;;;;15.3;100.0;101440;;;;
2022/06/21 00:21:00;;;;;;;0.5;0.5;;;;;;;15.3;100.0;101440;;;;
2022/06/21 00:22:00;;;;;;;0.5;0.5;;;;;;;15.3;100.0;101440;;;;
2022/06/21 00:23:00;;;;;;;0.5;0.5;;;;;;;15.2;100.0;101440;;;;
2022/06/21 00:24:00;;;;;;;0.5;0.5;;;;;;;15.2;100.0;101440;;;;
2022/06/21 00:25:00;;;;;;;0.5;0.5;;;;;;;15.3;100.0;101440;;;;
2022/06/21 00:26:00;;;;;;;0.5;0.5;;;;;;;15.3;100.0;101440;;;;
2022/06/21 00:27:00;;;;;;;0.5;0.5;;;;;;;15.3;100.0;101440;;;;
2022/06/21 00:28:00;;;;;;;0.5;0.5;;;;;;;15.3;100.0;101440;;;;
2022/06/21 00:29:00;;;;;;;0.5;0.5;;;;;;;15.3;100.0;101440;;;;
2022/06/21 00:30:00;;;;;;;0.5;0.5;;;;;;;15.3;100.0;101440;;;;
2022/06/21 00:31:00;;;;;;;0.5;0.5;;;;;;;15.3;100.0;101440;;;;
2022/06/21 00:32:00;;;;;;;0.5;0.5;;;;;;;15.3;100.0;101440;;;;
2022/06/21 00:33:00;;;;;;;0.5;0.5;;;;;;;15.3;100.0;101440;;;;
2022/06/21 00:34:10;;;;;;;0.5;0.5;;;;;;;15.3;100.0;101440;;;;
2022/06/21 00:35:00;;;;;;;0.5;0.5;;;;;;;15.2;100.0;101440;;;;
2022/06/21 00:36:02;;;;;;;0.5;0.5;;;;;;;15.2;100.0;101440;;;;
2022/06/21 00:37:00;;;;;;;0.5;0.5;;;;;;;15.2;100.0;101440;;;;
2022/06/21 00:38:00;;;;;;;0.5;0.5;;;;;;;15.2;100.0;101440;;;;
2022/06/21 00:39:01;;;;;;;0.5;0.5;;;;;;;15.1;100.0;101440;;;;
2022/06/21 00:40:00;;;;;;;0.5;0.5;;;;;;;15.1;100.0;101440;;;;
2022/06/21 00:41:02;;;;;;;0.5;0.5;;;;;;;15.0;100.0;101430;;;;
2022/06/21 00:42:10;;;;;;;0.6;0.6;;;;;;;15.0;100.0;101430;;;;
2022/06/21 00:43:06;;;;;;;0.6;0.6;;;;;;;15.1;100.0;101440;;;;
2022/06/21 00:44:01;;;;;;;0.6;0.6;;;;;;;15.1;100.0;101440;;;;
2022/06/21 00:45:05;;;;;;;0.6;0.6;;;;;;;15.0;100.0;101440;;;;
2022/06/21 00:46:01;;;;;;;0.6;0.6;;;;;;;15.0;100.0;101440;;;;
2022/06/21 00:47:03;;;;;;;0.6;0.6;;;;;;;15.0;100.0;101440;;;;
2022/06/21 00:48:02;;;;;;;0.6;0.6;;;;;;;15.0;100.0;101440;;;;
2022/06/21 00:49:01;;;;;;;0.6;0.6;;;;;;;14.8;100.0;101440;;;;
2022/06/21 00:50:03;;;;;;;0.6;0.6;;;;;;;14.8;100.0;101440;;;;
2022/06/21 00:51:07;;;;;;;0.6;0.6;;;;;;;14.8;100.0;101430;;;;
2022/06/21 00:52:07;;;;;;;0.6;0.6;;;;;;;14.8;100.0;101430;;;;
2022/06/21 00:53:07;;;;;;;0.6;0.6;;;;;;;14.9;100.0;101440;;;;
2022/06/21 00:54:05;;;;;;;0.6;0.6;;;;;;;14.9;100.0;101440;;;;
2022/06/21 00:55:02;;;;;;;0.6;0.6;;;;;;;14.9;100.0;101450;;;;
2022/06/21 00:56:03;;;;;;;0.6;0.6;;;;;;;14.9;100.0;101450;;;;
2022/06/21 00:57:02;;;;;;;0.6;0.6;;;;;;;14.8;100.0;101440;;;;
2022/06/21 00:58:00;;;;;;;0.6;0.6;;;;;;;14.8;100.0;101440;;;;
2022/06/21 00:59:10;;;;;;;0.6;0.6;;;;;;;14.9;100.0;101440;;;;
2022/06/21 01:00:10;;;;;;;0.6;0.6;;;;;;;14.9;100.0;101440;;;;
2022/06/21 01:01:03;;;;;;;0.6;0.6;;;;;;;14.8;100.0;101440;;;;
2022/06/21 01:02:02;;;;;;;0.4;0.4;;;;;;;14.8;100.0;101440;;;;
2022/06/21 01:03:03;;;;;;;0.4;0.4;;;;;;;14.9;100.0;101430;;;;
2022/06/21 01:04:03;;;;;;;0.4;0.4;;;;;;;14.9;100.0;101430;;;;
2022/06/21 01:05:01;;;;;;;0.4;0.4;;;;;;;14.8;100.0;101430;;;;
2022/06/21 01:06:01;;;;;;;0.4;0.4;;;;;;;14.8;100.0;101430;;;;
2022/06/21 01:07:01;;;;;;;0.4;0.4;;;;;;;14.8;100.0;101430;;;;
2022/06/21 01:08:00;;;;;;;0.4;0.4;;;;;;;14.8;100.0;101430;;;;
2022/06/21 01:09:02;;;;;;;0.4;0.4;;;;;;;14.7;100.0;101430;;;;
2022/06/21 01:10:04;;;;;;;0.4;0.4;;;;;;;14.7;100.0;101430;;;;
2022/06/21 01:11:05;;;;;;;0.4;0.4;;;;;;;14.8;100.0;101430;;;;
2022/06/21 01:12:04;;;;;;;0.4;0.4;;;;;;;14.8;100.0;101430;;;;
2022/06/21 01:13:06;;;;;;;0.4;0.4;;;;;;;14.7;100.0;101430;;;;
2022/06/21 01:14:01;;;;;;;0.4;0.4;;;;;;;14.7;100.0;101430;;;;
2022/06/21 01:15:01;;;;;;;0.4;0.4;;;;;;;14.7;100.0;101430;;;;
2022/06/21 01:16:00;;;;;;;0.4;0.4;;;;;;;14.7;100.0;101430;;;;
2022/06/21 01:17:00;;;;;;;0.4;0.4;;;;;;;14.7;100.0;101430;;;;
2022/06/21 01:18:01;;;;;;;0.4;0.4;;;;;;;14.7;100.0;101430;;;;
2022/06/21 01:19:01;;;;;;;0.4;0.4;;;;;;;14.7;100.0;101420;;;;
2022/06/21 01:20:03;;;;;;;0.4;0.4;;;;;;;14.7;100.0;101420;;;;
2022/06/21 01:21:00;;;;;;;0.4;0.4;;;;;;;14.6;100.0;101420;;;;
2022/06/21 01:22:03;;;;;;;0.5;0.5;;;;;;;14.6;100.0;101420;;;;
2022/06/21 01:23:10;;;;;;;0.5;0.5;;;;;;;14.6;100.0;101420;;;;
2022/06/21 01:24:07;;;;;;;0.5;0.5;;;;;;;14.6;100.0;101420;;;;
2022/06/21 01:25:10;;;;;;;0.5;0.5;;;;;;;14.6;100.0;101410;;;;
2022/06/21 01:26:05;;;;;;;0.5;0.5;;;;;;;14.6;100.0;101410;;;;
2022/06/21 01:27:01;;;;;;;0.5;0.5;;;;;;;14.6;100.0;101410;;;;
2022/06/21 01:28:00;;;;;;;0.5;0.5;;;;;;;14.6;100.0;101410;;;;
2022/06/21 01:29:01;;;;;;;0.5;0.5;;;;;;;14.5;100.0;101410;;;;
2022/06/21 01:30:00;;;;;;;0.5;0.5;;;;;;;14.5;100.0;101410;;;;
2022/06/21 01:31:01;;;;;;;0.5;0.5;;;;;;;14.5;100.0;101410;;;;
2022/06/21 01:32:02;;;;;;;0.5;0.5;;;;;;;14.5;100.0;101410;;;;
2022/06/21 01:33:01;;;;;;;0.5;0.5;;;;;;;14.4;100.0;101420;;;;
2022/06/21 01:34:00;;;;;;;0.5;0.5;;;;;;;14.4;100.0;101420;;;;
2022/06/21 01:35:01;;;;;;;0.5;0.5;;;;;;;14.4;100.0;101420;;;;
2022/06/21 01:36:01;;;;;;;0.5;0.5;;;;;;;14.4;100.0;101420;;;;
2022/06/21 01:37:06;;;;;;;0.5;0.5;;;;;;;14.4;100.0;101410;;;;
2022/06/21 01:38:01;;;;;;;0.5;0.5;;;;;;;14.4;100.0;101410;;;;
2022/06/21 01:39:04;;;;;;;0.5;0.5;;;;;;;14.4;100.0;101420;;;;
2022/06/21 01:40:10;;;;;;;0.5;0.5;;;;;;;14.4;100.0;101420;;;;
2022/06/21 01:41:05;;;;;;;0.5;0.5;;;;;;;14.3;100.0;101420;;;;
2022/06/21 01:42:06;;;;;;;12.8;2.7;;;;;;;14.3;100.0;101420;;;;
2022/06/21 01:43:03;;;;;;;12.8;2.7;;;;;;;14.3;100.0;101420;;;;
2022/06/21 01:44:02;;;;;;;12.8;2.7;;;;;;;14.3;100.0;101420;;;;
2022/06/21 01:45:02;;;;;;;12.8;2.7;;;;;;;14.2;100.0;101430;;;;
2022/06/21 01:46:02;;;;;;;12.8;2.7;;;;;;;14.2;100.0;101430;;;;
2022/06/21 01:47:01;;;;;;;12.8;2.7;;;;;;;14.2;100.0;101430;;;;
2022/06/21 01:48:03;;;;;;;12.8;2.7;;;;;;;14.2;100.0;101430;;;;
2022/06/21 01:49:06;;;;;;;12.8;2.7;;;;;;;14.2;100.0;101430;;;;
2022/06/21 01:50:01;;;;;;;12.8;2.7;;;;;;;14.2;100.0;101430;;;;
2022/06/21 01:51:10;;;;;;;12.8;2.7;;;;;;;14.2;100.0;101430;;;;
2022/06/21 01:52:02;;;;;;;12.8;2.7;;;;;;;14.2;100.0;101430;;;;
2022/06/21 01:53:01;;;;;;;12.8;2.7;;;;;;;14.1;100.0;101430;;;;
2022/06/21 01:54:01;;;;;;;12.8;2.7;;;;;;;14.1;100.0;101430;;;;
2022/06/21 01:55:03;;;;;;;12.8;2.7;;;;;;;14.1;100.0;101420;;;;
2022/06/21 01:56:06;;;;;;;12.8;2.7;;;;;;;14.1;100.0;101420;;;;
2022/06/21 01:57:00;;;;;;;12.8;2.7;;;;;;;14.1;100.0;101420;;;;
2022/06/21 01:58:01;;;;;;;12.8;2.7;;;;;;;14.1;100.0;101420;;;;
2022/06/21 01:59:04;;;;;;;12.8;2.7;;;;;;;14.1;100.0;101420;;;;
2022/06/21 02:00:03;;;;;;;12.8;2.7;;;;;;;14.1;100.0;101420;;;;
2022/06/21 02:01:01;;;;;;;12.8;2.7;;;;;;;14.1;100.0;101420;;;;
2022/06/21 02:02:04;;;;;;;0.4;0.4;;;;;;;14.1;100.0;101420;;;;
2022/06/21 02:03:10;;;;;;;0.4;0.4;;;;;;;14.0;100.0;101430;;;;
2022/06/21 02:04:01;;;;;;;0.4;0.4;;;;;;;14.0;100.0;101430;;;;
2022/06/21 02:05:03;;;;;;;0.4;0.4;;;;;;;14.0;100.0;101430;;;;
2022/06/21 02:06:02;;;;;;;0.4;0.4;;;;;;;14.0;100.0;101430;;;;
2022/06/21 02:07:02;;;;;;;0.4;0.4;;;;;;;14.0;100.0;101420;;;;
2022/06/21 02:08:04;;;;;;;0.4;0.4;;;;;;;14.0;100.0;101420;;;;
2022/06/21 02:09:02;;;;;;;0.4;0.4;;;;;;;14.0;100.0;101410;;;;
2022/06/21 02:10:06;;;;;;;0.4;0.4;;;;;;;14.0;100.0;101410;;;;
2022/06/21 02:11:02;;;;;;;0.4;0.4;;;;;;;14.0;100.0;101420;;;;
2022/06/21 02:12:02;;;;;;;0.4;0.4;;;;;;;14.0;100.0;101420;;;;
2022/06/21 02:13:02;;;;;;;0.4;0.4;;;;;;;13.9;100.0;101410;;;;
2022/06/21 02:15:01;;;;;;;0.4;0.4;;;;;;;13.8;100.0;101410;;;;
2022/06/21 02:16:03;;;;;;;0.4;0.4;;;;;;;13.8;100.0;101410;;;;
2022/06/21 02:17:04;;;;;;;0.4;0.4;;;;;;;13.9;100.0;101410;;;;
2022/06/21 02:18:01;;;;;;;0.4;0.4;;;;;;;13.9;100.0;101410;;;;
2022/06/21 02:19:00;;;;;;;0.4;0.4;;;;;;;13.8;100.0;101400;;;;
2022/06/21 02:20:07;;;;;;;0.4;0.4;;;;;;;13.8;100.0;101400;;;;
2022/06/21 02:21:04;;;;;;;0.4;0.4;;;;;;;13.8;100.0;101400;;;;
2022/06/21 02:22:00;;;;;;;10.9;1.1;;;;;;;13.8;100.0;101400;;;;
2022/06/21 02:23:00;;;;;;;10.9;1.1;;;;;;;13.7;100.0;101390;;;;
2022/06/21 02:24:00;;;;;;;10.9;1.1;;;;;;;13.7;100.0;101390;;;;
2022/06/21 02:25:00;;;;;;;10.9;1.1;;;;;;;13.8;100.0;101400;;;;
2022/06/21 02:26:01;;;;;;;10.9;1.1;;;;;;;13.8;100.0;101400;;;;
2022/06/21 02:27:01;;;;;;;10.9;1.1;;;;;;;13.8;100.0;101400;;;;
2022/06/21 02:28:05;;;;;;;10.9;1.1;;;;;;;13.8;100.0;101400;;;;
2022/06/21 02:29:00;;;;;;;10.9;1.1;;;;;;;13.8;100.0;101410;;;;
2022/06/21 02:30:02;;;;;;;10.9;1.1;;;;;;;13.8;100.0;101410;;;;
2022/06/21 02:31:00;;;;;;;10.9;1.1;;;;;;;13.7;100.0;101410;;;;
2022/06/21 02:32:01;;;;;;;10.9;1.1;;;;;;;13.7;100.0;101410;;;;
2022/06/21 02:33:01;;;;;;;10.9;1.1;;;;;;;13.7;100.0;101410;;;;
2022/06/21 02:34:03;;;;;;;10.9;1.1;;;;;;;13.7;100.0;101410;;;;
2022/06/21 02:35:05;;;;;;;10.9;1.1;;;;;;;13.6;100.0;101400;;;;
2022/06/21 02:36:03;;;;;;;10.9;1.1;;;;;;;13.6;100.0;101400;;;;
2022/06/21 02:37:01;;;;;;;10.9;1.1;;;;;;;13.6;100.0;101390;;;;
2022/06/21 02:38:01;;;;;;;10.9;1.1;;;;;;;13.6;100.0;101390;;;;
2022/06/21 02:39:02;;;;;;;10.9;1.1;;;;;;;13.4;100.0;101380;;;;
2022/06/21 02:40:03;;;;;;;10.9;1.1;;;;;;;13.4;100.0;101380;;;;
2022/06/21 02:41:05;;;;;;;10.9;1.1;;;;;;;13.1;100.0;101370;;;;
2022/06/21 02:42:10;;;;;;;0.9;0.9;;;;;;;13.1;100.0;101370;;;;
2022/06/21 02:43:02;;;;;;;0.9;0.9;;;;;;;13.1;100.0;101370;;;;
2022/06/21 02:44:02;;;;;;;0.9;0.9;;;;;;;13.1;100.0;101370;;;;
2022/06/21 02:45:04;;;;;;;0.9;0.9;;;;;;;13.1;100.0;101360;;;;
2022/06/21 02:46:03;;;;;;;0.9;0.9;;;;;;;13.1;100.0;101360;;;;
2022/06/21 02:47:05;;;;;;;0.9;0.9;;;;;;;13.2;100.0;101350;;;;
2022/06/21 02:48:02;;;;;;;0.9;0.9;;;;;;;13.2;100.0;101350;;;;
2022/06/21 02:49:06;;;;;;;0.9;0.9;;;;;;;13.1;100.0;101350;;;;
2022/06/21 02:50:03;;;;;;;0.9;0.9;;;;;;;13.1;100.0;101350;;;;
2022/06/21 02:51:05;;;;;;;0.9;0.9;;;;;;;13.2;100.0;101350;;;;
2022/06/21 02:52:03;;;;;;;0.9;0.9;;;;;;;13.2;100.0;101350;;;;
2022/06/21 02:53:01;;;;;;;0.9;0.9;;;;;;;13.0;100.0;101350;;;;
2022/06/21 02:54:10;;;;;;;0.9;0.9;;;;;;;13.0;100.0;101350;;;;
2022/06/21 02:55:10;;;;;;;0.9;0.9;;;;;;;13.0;100.0;101350;;;;
2022/06/21 02:56:05;;;;;;;0.9;0.9;;;;;;;13.0;100.0;101350;;;;
2022/06/21 02:57:01;;;;;;;0.9;0.9;;;;;;;13.0;100.0;101340;;;;
2022/06/21 02:58:10;;;;;;;0.9;0.9;;;;;;;13.0;100.0;101340;;;;
2022/06/21 02:59:00;;;;;;;0.9;0.9;;;;;;;12.9;100.0;101340;;;;
2022/06/21 03:00:01;;;;;;;0.9;0.9;;;;;;;12.9;100.0;101340;;;;
2022/06/21 03:01:02;;;;;;;0.9;0.9;;;;;;;12.8;100.0;101340;;;;
2022/06/21 03:02:04;;;;;;;0.7;0.7;;;;;;;12.8;100.0;101340;;;;
2022/06/21 03:03:01;;;;;;;0.7;0.7;;;;;;;12.8;100.0;101340;;;;
2022/06/21 03:04:00;;;;;;;0.7;0.7;;;;;;;12.8;100.0;101340;;;;
2022/06/21 03:05:02;;;;;;;0.7;0.7;;;;;;;12.9;100.0;101340;;;;
2022/06/21 03:06:01;;;;;;;0.7;0.7;;;;;;;12.9;100.0;101340;;;;
2022/06/21 03:07:00;;;;;;;0.7;0.7;;;;;;;12.9;100.0;101340;;;;
2022/06/21 03:08:03;;;;;;;0.7;0.7;;;;;;;12.9;100.0;101340;;;;
2022/06/21 03:09:02;;;;;;;0.7;0.7;;;;;;;12.9;100.0;101350;;;;
2022/06/21 03:10:00;;;;;;;0.7;0.7;;;;;;;12.9;100.0;101350;;;;
2022/06/21 03:11:00;;;;;;;0.7;0.7;;;;;;;13.0;100.0;101350;;;;
2022/06/21 03:12:02;;;;;;;0.7;0.7;;;;;;;13.0;100.0;101350;;;;
2022/06/21 03:13:03;;;;;;;0.7;0.7;;;;;;;12.9;100.0;101360;;;;
2022/06/21 03:14:03;;;;;;;0.7;0.7;;;;;;;12.9;100.0;101360;;;;
2022/06/21 03:15:03;;;;;;;0.7;0.7;;;;;;;13.0;100.0;101360;;;;
2022/06/21 03:16:05;;;;;;;0.7;0.7;;;;;;;13.0;100.0;101360;;;;
2022/06/21 03:17:01;;;;;;;0.7;0.7;;;;;;;13.1;100.0;101360;;;;
2022/06/21 03:18:04;;;;;;;0.7;0.7;;;;;;;13.1;100.0;101360;;;;
2022/06/21 03:19:02;;;;;;;0.7;0.7;;;;;;;13.1;100.0;101370;;;;
2022/06/21 03:20:00;;;;;;;0.7;0.7;;;;;;;13.1;100.0;101370;;;;
2022/06/21 03:21:02;;;;;;;0.7;0.7;;;;;;;13.0;100.0;101370;;;;
2022/06/21 03:22:01;;;;;;;0.6;0.6;;;;;;;13.0;100.0;101370;;;;
2022/06/21 03:23:01;;;;;;;0.6;0.6;;;;;;;13.0;100.0;101370;;;;
2022/06/21 03:24:03;;;;;;;0.6;0.6;;;;;;;13.0;100.0;101370;;;;
2022/06/21 03:25:02;;;;;;;0.6;0.6;;;;;;;13.1;100.0;101370;;;;
2022/06/21 03:26:01;;;;;;;0.6;0.6;;;;;;;13.1;100.0;101370;;;;
2022/06/21 03:27:03;;;;;;;0.6;0.6;;;;;;;13.0;100.0;101370;;;;
2022/06/21 03:28:01;;;;;;;0.6;0.6;;;;;;;13.0;100.0;101370;;;;
2022/06/21 03:29:00;;;;;;;0.6;0.6;;;;;;;13.0;100.0;101380;;;;
2022/06/21 03:30:00;;;;;;;0.6;0.6;;;;;;;13.0;100.0;101380;;;;
2022/06/21 03:31:01;;;;;;;0.6;0.6;;;;;;;13.0;100.0;101380;;;;
2022/06/21 03:32:02;;;;;;;0.6;0.6;;;;;;;13.0;100.0;101380;;;;
2022/06/21 03:33:01;;;;;;;0.6;0.6;;;;;;;12.9;100.0;101390;;;;
2022/06/21 03:34:10;;;;;;;0.6;0.6;;;;;;;12.9;100.0;101390;;;;
2022/06/21 03:35:01;;;;;;;0.6;0.6;;;;;;;12.9;100.0;101390;;;;
2022/06/21 03:36:00;;;;;;;0.6;0.6;;;;;;;12.9;100.0;101390;;;;
2022/06/21 03:37:00;;;;;;;0.6;0.6;;;;;;;12.9;100.0;101400;;;;
2022/06/21 03:38:01;;;;;;;0.6;0.6;;;;;;;12.9;100.0;101400;;;;
2022/06/21 03:39:03;;;;;;;0.6;0.6;;;;;;;12.9;100.0;101400;;;;
2022/06/21 03:42:00;;;;;;;0.5;0.5;;;;;;;12.9;100.0;101400;;;;
2022/06/21 03:43:08;;;;;;;0.5;0.5;;;;;;;12.8;100.0;101400;;;;
2022/06/21 03:44:02;;;;;;;0.5;0.5;;;;;;;12.8;100.0;101400;;;;
2022/06/21 03:45:02;;;;;;;0.5;0.5;;;;;;;12.8;100.0;101400;;;;
2022/06/21 03:46:01;;;;;;;0.5;0.5;;;;;;;12.8;100.0;101400;;;;
2022/06/21 03:47:09;;;;;;;0.5;0.5;;;;;;;12.7;100.0;101400;;;;
2022/06/21 03:48:05;;;;;;;0.5;0.5;;;;;;;12.7;100.0;101400;;;;
2022/06/21 03:49:02;;;;;;;0.5;0.5;;;;;;;12.6;100.0;101390;;;;
2022/06/21 03:50:00;;;;;;;0.5;0.5;;;;;;;12.6;100.0;101390;;;;
2022/06/21 03:51:06;;;;;;;0.5;0.5;;;;;;;12.5;100.0;101370;;;;
2022/06/21 03:52:03;;;;;;;0.5;0.5;;;;;;;12.5;100.0;101370;;;;
2022/06/21 03:53:03;;;;;;;0.5;0.5;;;;;;;12.6;100.0;101360;;;;
2022/06/21 03:54:06;;;;;;;0.5;0.5;;;;;;;12.6;100.0;101360;;;;
2022/06/21 03:55:00;;;;;;;0.5;0.5;;;;;;;12.5;100.0;101360;;;;
2022/06/21 03:56:03;;;;;;;0.5;0.5;;;;;;;12.5;100.0;101360;;;;
2022/06/21 03:57:08;;;;;;;0.5;0.5;;;;;;;12.4;100.0;101350;;;;
2022/06/21 03:58:10;;;;;;;0.5;0.5;;;;;;;12.4;100.0;101350;;;;
2022/06/21 03:59:10;;;;;;;0.5;0.5;;;;;;;12.4;100.0;101360;;;;
2022/06/21 04:00:04;;;;;;;0.5;0.5;;;;;;;12.4;100.0;101360;;;;
2022/06/21 04:01:00;;;;;;;0.5;0.5;;;;;;;12.6;100.0;101360;;;;
2022/06/21 04:02:00;;;;;;;1.9;0.9;;;;;;;12.6;100.0;101360;;;;
2022/06/21 04:03:06;;;;;;;1.9;0.9;;;;;;;12.7;100.0;101360;;;;
2022/06/21 04:04:06;;;;;;;1.9;0.9;;;;;;;12.7;100.0;101360;;;;
2022/06/21 04:05:03;;;;;;;1.9;0.9;;;;;;;12.7;100.0;101350;;;;
2022/06/21 04:06:10;;;;;;;1.9;0.9;;;;;;;12.7;100.0;101350;;;;
2022/06/21 04:07:04;;;;;;;1.9;0.9;;;;;;;12.4;100.0;101340;;;;
2022/06/21 04:08:03;;;;;;;1.9;0.9;;;;;;;12.4;100.0;101340;;;;
2022/06/21 04:09:03;;;;;;;1.9;0.9;;;;;;;12.2;100.0;101340;;;;
2022/06/21 04:10:04;;;;;;;1.9;0.9;;;;;;;12.2;100.0;101340;;;;
2022/06/21 04:11:06;;;;;;;1.9;0.9;;;;;;;12.2;100.0;101340;;;;
2022/06/21 04:12:00;;;;;;;1.9;0.9;;;;;;;12.2;100.0;101340;;;;
2022/06/21 04:13:01;;;;;;;1.9;0.9;;;;;;;12.2;100.0;101330;;;;
2022/06/21 04:14:00;;;;;;;1.9;0.9;;;;;;;12.2;100.0;101330;;;;
2022/06/21 04:15:10;;;;;;;1.9;0.9;;;;;;;12.3;100.0;101340;;;;
2022/06/21 04:16:07;;;;;;;1.9;0.9;;;;;;;12.3;100.0;101340;;;;
2022/06/21 04:17:04;;;;;;;1.9;0.9;;;;;;;12.3;100.0;101340;;;;
2022/06/21 04:18:03;;;;;;;1.9;0.9;;;;;;;12.3;100.0;101340;;;;
2022/06/21 04:19:02;;;;;;;1.9;0.9;;;;;;;12.2;100.0;101350;;;;
2022/06/21 04:20:03;;;;;;;1.9;0.9;;;;;;;12.2;100.0;101350;;;;
2022/06/21 04:21:10;;;;;;;1.9;0.9;;;;;;;12.4;100.0;101350;;;;
2022/06/21 04:22:00;;;;;;;0.9;0.9;;;;;;;12.4;100.0;101350;;;;
2022/06/21 04:23:10;;;;;;;0.9;0.9;;;;;;;12.5;100.0;101350;;;;
2022/06/21 04:24:10;;;;;;;0.9;0.9;;;;;;;12.5;100.0;101350;;;;
2022/06/21 04:25:07;;;;;;;0.9;0.9;;;;;;;12.4;100.0;101350;;;;
2022/06/21 04:26:06;;;;;;;0.9;0.9;;;;;;;12.4;100.0;101350;;;;
2022/06/21 04:27:09;;;;;;;0.9;0.9;;;;;;;12.6;100.0;101340;;;;
2022/06/21 04:28:08;;;;;;;0.9;0.9;;;;;;;12.6;100.0;101340;;;;
2022/06/21 04:29:03;;;;;;;0.9;0.9;;;;;;;12.5;100.0;101340;;;;
2022/06/21 04:30:00;;;;;;;0.9;0.9;;;;;;;12.5;100.0;101340;;;;
2022/06/21 04:31:00;;;;;;;0.9;0.9;;;;;;;12.6;100.0;101350;;;;
2022/06/21 04:32:03;;;;;;;0.9;0.9;;;;;;;12.6;100.0;101350;;;;
2022/06/21 04:33:10;;;;;;;0.9;0.9;;;;;;;12.7;100.0;101350;;;;
2022/06/21 04:34:07;;;;;;;0.9;0.9;;;;;;;12.7;100.0;101350;;;;
2022/06/21 04:35:03;;;;;;;0.9;0.9;;;;;;;12.8;100.0;101350;;;;
2022/06/21 04:36:10;;;;;;;0.9;0.9;;;;;;;12.8;100.0;101350;;;;
2022/06/21 04:37:06;;;;;;;0.9;0.9;;;;;;;12.7;100.0;101350;;;;
2022/06/21 04:38:01;;;;;;;0.9;0.9;;;;;;;12.7;100.0;101350;;;;
2022/06/21 04:39:02;;;;;;;0.9;0.9;;;;;;;12.6;100.0;101350;;;;
2022/06/21 04:40:03;;;;;;;0.9;0.9;;;;;;;12.6;100.0;101350;;;;
2022/06/21 04:41:10;;;;;;;0.9;0.9;;;;;;;12.6;100.0;101350;;;;
2022/06/21 04:42:03;;;;;;;0.7;0.7;;;;;;;12.6;100.0;101350;;;;
2022/06/21 04:43:06;;;;;;;0.7;0.7;;;;;;;12.7;100.0;101350;;;;
2022/06/21 04:44:03;;;;;;;0.7;0.7;;;;;;;12.7;100.0;101350;;;;
2022/06/21 04:45:05;;;;;;;0.7;0.7;;;;;;;12.8;100.0;101340;;;;
2022/06/21 04:46:04;;;;;;;0.7;0.7;;;;;;;12.8;100.0;101340;;;;
2022/06/21 04:47:04;;;;;;;0.7;0.7;;;;;;;12.8;100.0;101340;;;;
2022/06/21 04:48:09;;;;;;;0.7;0.7;;;;;;;12.8;100.0;101340;;;;
2022/06/21 04:49:09;;;;;;;0.7;0.7;;;;;;;12.7;100.0;101330;;;;
2022/06/21 04:50:03;;;;;;;0.7;0.7;;;;;;;12.7;100.0;101330;;;;
2022/06/21 04:51:03;;;;;;;0.7;0.7;;;;;;;12.9;100.0;101340;;;;
2022/06/21 04:52:10;;;;;;;0.7;0.7;;;;;;;12.9;100.0;101340;;;;
2022/06/21 04:53:04;;;;;;;0.7;0.7;;;;;;;12.8;100.0;101340;;;;
2022/06/21 04:54:05;;;;;;;0.7;0.7;;;;;;;12.8;100.0;101340;;;;
2022/06/21 04:55:01;;;;;;;0.7;0.7;;;;;;;12.9;100.0;101340;;;;
2022/06/21 04:56:06;;;;;;;0.7;0.7;;;;;;;12.9;100.0;101340;;;;
2022/06/21 04:57:10;;;;;;;0.7;0.7;;;;;;;12.9;100.0;101340;;;;
2022/06/21 04:58:00;;;;;;;0.7;0.7;;;;;;;12.9;100.0;101340;;;;
2022/06/21 04:59:01;;;;;;;0.7;0.7;;;;;;;13.1;100.0;101340;;;;
2022/06/21 05:00:03;;;;;;;0.7;0.7;;;;;;;13.1;100.0;101340;;;;
2022/06/21 05:01:29;;;;;;;0.7;0.7;;;;;;;13.1;100.0;101350;;;;
2022/06/21 05:02:01;;;;;;;0.7;0.7;;;;;;;13.1;100.0;101350;;;;
2022/06/21 05:03:10;;;;;;;0.7;0.7;;;;;;;13.1;100.0;101350;;;;
2022/06/21 05:04:02;;;;;;;0.7;0.7;;;;;;;13.1;100.0;101350;;;;
2022/06/21 05:05:03;;;;;;;0.7;0.7;;;;;;;13.0;100.0;101340;;;;
2022/06/21 05:06:00;;;;;;;0.7;0.7;;;;;;;13.0;100.0;101340;;;;
2022/06/21 05:07:02;;;;;;;0.7;0.7;;;;;;;13.0;100.0;101340;;;;
2022/06/21 05:08:05;;;;;;;0.7;0.7;;;;;;;13.0;100.0;101340;;;;
2022/06/21 05:09:03;;;;;;;0.7;0.7;;;;;;;13.1;100.0;101350;;;;
2022/06/21 05:10:00;;;;;;;0.7;0.7;;;;;;;13.1;100.0;101350;;;;
2022/06/21 05:11:01;;;;;;;0.7;0.7;;;;;;;13.2;100.0;101340;;;;
2022/06/21 05:12:02;;;;;;;0.7;0.7;;;;;;;13.2;100.0;101340;;;;
2022/06/21 05:13:02;;;;;;;0.7;0.7;;;;;;;13.2;100.0;101340;;;;
2022/06/21 05:14:01;;;;;;;0.7;0.7;;;;;;;13.2;100.0;101340;;;;
2022/06/21 05:15:02;;;;;;;0.7;0.7;;;;;;;13.3;100.0;101340;;;;
2022/06/21 05:16:02;;;;;;;0.7;0.7;;;;;;;13.3;100.0;101340;;;;
2022/06/21 05:17:01;;;;;;;0.7;0.7;;;;;;;13.3;100.0;101340;;;;
2022/06/21 05:18:03;;;;;;;0.7;0.7;;;;;;;13.3;100.0;101340;;;;
2022/06/21 05:19:12;;;;;;;0.7;0.7;;;;;;;13.2;100.0;101340;;;;
2022/06/21 05:20:03;;;;;;;0.7;0.7;;;;;;;13.2;100.0;101340;;;;
2022/06/21 05:21:03;;;;;;;0.5;0.5;;;;;;;13.3;100.0;101340;;;;
2022/06/21 05:22:04;;;;;;;0.5;0.5;;;;;;;13.3;100.0;101340;;;;
2022/06/21 05:23:02;;;;;;;0.5;0.5;;;;;;;13.4;100.0;101340;;;;
2022/06/21 05:24:01;;;;;;;0.5;0.5;;;;;;;13.4;100.0;101340;;;;
2022/06/21 05:25:00;;;;;;;0.5;0.5;;;;;;;13.4;100.0;101340;;;;
2022/06/21 05:26:04;;;;;;;0.5;0.5;;;;;;;13.4;100.0;101340;;;;
2022/06/21 05:27:05;;;;;;;0.5;0.5;;;;;;;13.5;100.0;101330;;;;
2022/06/21 05:28:04;;;;;;;0.5;0.5;;;;;;;13.5;100.0;101330;;;;
2022/06/21 05:29:05;;;;;;;0.5;0.5;;;;;;;13.6;100.0;101330;;;;
2022/06/21 05:30:10;;;;;;;0.5;0.5;;;;;;;13.6;100.0;101330;;;;
2022/06/21 05:31:06;;;;;;;0.5;0.5;;;;;;;13.7;100.0;101330;;;;
2022/06/21 05:32:02;;;;;;;0.5;0.5;;;;;;;13.7;100.0;101330;;;;
2022/06/21 05:33:05;;;;;;;0.5;0.5;;;;;;;13.8;100.0;101340;;;;
2022/06/21 05:34:10;;;;;;;0.5;0.5;;;;;;;13.8;100.0;101340;;;;
2022/06/21 05:35:05;;;;;;;0.5;0.5;;;;;;;13.8;100.0;101330;;;;
2022/06/21 05:36:01;;;;;;;0.5;0.5;;;;;;;13.8;100.0;101330;;;;
2022/06/21 05:37:03;;;;;;;0.5;0.5;;;;;;;13.9;100.0;101330;;;;
2022/06/21 05:38:01;;;;;;;0.5;0.5;;;;;;;13.9;100.0;101330;;;;
2022/06/21 05:39:02;;;;;;;0.5;0.5;;;;;;;14.0;100.0;101330;;;;
2022/06/21 05:40:05;;;;;;;0.5;0.5;;;;;;;14.0;100.0;101330;;;;
2022/06/21 05:41:10;;;;;;;0.5;0.5;;;;;;;13.9;100.0;101320;;;;
2022/06/21 05:42:03;;;;;;;0.5;0.5;;;;;;;13.9;100.0;101320;;;;
2022/06/21 05:43:00;;;;;;;0.5;0.5;;;;;;;14.0;100.0;101330;;;;
2022/06/21 05:44:02;;;;;;;0.5;0.5;;;;;;;14.0;100.0;101330;;;;
2022/06/21 05:45:00;;;;;;;0.5;0.5;;;;;;;14.2;100.0;101330;;;;
2022/06/21 05:46:01;;;;;;;0.5;0.5;;;;;;;14.2;100.0;101330;;;;
2022/06/21 05:47:06;;;;;;;0.5;0.5;;;;;;;13.9;100.0;101330;;;;
2022/06/21 05:48:03;;;;;;;0.5;0.5;;;;;;;13.9;100.0;101330;;;;
2022/06/21 05:49:01;;;;;;;0.5;0.5;;;;;;;14.1;100.0;101330;;;;
2022/06/21 05:50:03;;;;;;;0.5;0.5;;;;;;;14.1;100.0;101330;;;;
2022/06/21 05:51:01;;;;;;;0.5;0.5;;;;;;;14.1;100.0;101340;;;;
2022/06/21 05:52:03;;;;;;;0.5;0.5;;;;;;;14.1;100.0;101340;;;;
2022/06/21 05:53:10;;;;;;;0.5;0.5;;;;;;;14.2;100.0;101340;;;;
2022/06/21 05:54:02;;;;;;;0.5;0.5;;;;;;;14.2;100.0;101340;;;;
2022/06/21 05:55:02;;;;;;;0.5;0.5;;;;;;;14.3;100.0;101340;;;;
2022/06/21 05:56:03;;;;;;;0.5;0.5;;;;;;;14.3;100.0;101340;;;;
2022/06/21 05:57:01;;;;;;;0.5;0.5;;;;;;;14.4;100.0;101340;;;;
2022/06/21 05:58:02;;;;;;;0.5;0.5;;;;;;;14.4;100.0;101340;;;;
2022/06/21 05:59:02;;;;;;;0.5;0.5;;;;;;;14.4;100.0;101340;;;;
2022/06/21 06:00:01;;;;;;;0.5;0.5;;;;;;;14.4;100.0;101340;;;;
2022/06/21 06:01:10;;;;;;;0.4;0.4;;;;;;;14.6;100.0;101340;;;;
2022/06/21 06:02:04;;;;;;;0.4;0.4;;;;;;;14.6;100.0;101340;;;;
2022/06/21 06:03:05;;;;;;;0.4;0.4;;;;;;;14.7;100.0;101340;;;;
2022/06/21 06:04:10;;;;;;;0.4;0.4;;;;;;;14.7;100.0;101340;;;;
2022/06/21 06:05:05;;;;;;;0.4;0.4;;;;;;;14.7;100.0;101350;;;;
2022/06/21 06:06:05;;;;;;;0.4;0.4;;;;;;;14.7;100.0;101350;;;;
2022/06/21 06:07:01;;;;;;;0.4;0.4;;;;;;;14.8;100.0;101340;;;;
2022/06/21 06:08:02;;;;;;;0.4;0.4;;;;;;;14.8;100.0;101340;;;;
2022/06/21 06:09:03;;;;;;;0.4;0.4;;;;;;;15.1;100.0;101360;;;;
2022/06/21 06:10:03;;;;;;;0.4;0.4;;;;;;;15.1;100.0;101360;;;;
2022/06/21 06:11:01;;;;;;;0.4;0.4;;;;;;;15.1;100.0;101360;;;;
2022/06/21 06:12:03;;;;;;;0.4;0.4;;;;;;;15.1;100.0;101360;;;;
2022/06/21 06:13:03;;;;;;;0.4;0.4;;;;;;;15.1;100.0;101360;;;;
2022/06/21 06:14:00;;;;;;;0.4;0.4;;;;;;;15.1;100.0;101360;;;;
2022/06/21 06:15:10;;;;;;;0.4;0.4;;;;;;;15.2;100.0;101360;;;;
2022/06/21 06:16:02;;;;;;;0.4;0.4;;;;;;;15.2;100.0;101360;;;;
2022/06/21 06:17:03;;;;;;;0.4;0.4;;;;;;;15.4;100.0;101360;;;;
2022/06/21 06:18:05;;;;;;;0.4;0.4;;;;;;;15.4;100.0;101360;;;;
2022/06/21 06:19:04;;;;;;;0.4;0.4;;;;;;;15.5;100.0;101370;;;;
2022/06/21 06:20:10;;;;;;;0.4;0.4;;;;;;;15.5;100.0;101370;;;;
2022/06/21 06:21:06;;;;;;;0.4;0.4;;;;;;;15.5;100.0;101380;;;;
2022/06/21 06:22:10;;;;;;;0.4;0.4;;;;;;;15.5;100.0;101380;;;;
2022/06/21 06:23:05;;;;;;;0.4;0.4;;;;;;;15.6;100.0;101380;;;;
2022/06/21 06:24:08;;;;;;;0.4;0.4;;;;;;;15.6;100.0;101380;;;;
2022/06/21 06:25:04;;;;;;;0.4;0.4;;;;;;;15.5;100.0;101380;;;;